sensor_id;sensor_type;location;lat;lon;timestamp;P1;durP1;ratioP1;P2;durP2;ratioP2
68655;SDS011;55638;51.122;13.606;2023-04-25T00:00:28;2.85;;;1.75;;
68655;SDS011;55638;51.122;13.606;2023-04-25T00:02:00;2.95;;;1.40;;
68655;SDS011;55638;51.122;13.606;2023-04-25T00:03:32;1.65;;;1.17;;
68655;SDS011;55638;51.122;13.606;2023-04-25T00:05:04;1.90;;;1.48;;
68655;SDS011;55638;51.122;13.606;2023-04-25T00:06:37;2.92;;;1.63;;
68655;SDS011;55638;51.122;13.606;2023-04-25T00:08:09;1.92;;;1.38;;
68655;SDS011;55638;51.122;13.606;2023-04-25T00:09:41;2.22;;;1.23;;
68655;SDS011;55638;51.122;13.606;2023-04-25T00:11:13;2.85;;;1.40;;
68655;SDS011;55638;51.122;13.606;2023-04-25T00:12:45;2.55;;;1.40;;
68655;SDS011;55638;51.122;13.606;2023-04-25T00:14:17;2.15;;;1.40;;
68655;SDS011;55638;51.122;13.606;2023-04-25T00:15:49;2.53;;;1.40;;
68655;SDS011;55638;51.122;13.606;2023-04-25T00:17:21;2.78;;;1.55;;
68655;SDS011;55638;51.122;13.606;2023-04-25T00:18:56;3.00;;;1.70;;
68655;SDS011;55638;51.122;13.606;2023-04-25T00:20:28;3.17;;;1.55;;
68655;SDS011;55638;51.122;13.606;2023-04-25T00:21:59;2.45;;;1.55;;
68655;SDS011;55638;51.122;13.606;2023-04-25T00:23:31;1.63;;;1.40;;
68655;SDS011;55638;51.122;13.606;2023-04-25T00:25:04;2.10;;;1.50;;
68655;SDS011;55638;51.122;13.606;2023-04-25T00:26:37;1.60;;;1.50;;
68655;SDS011;55638;51.122;13.606;2023-04-25T00:28:08;2.40;;;1.50;;
68655;SDS011;55638;51.122;13.606;2023-04-25T00:29:40;2.00;;;1.52;;
68655;SDS011;55638;51.122;13.606;2023-04-25T00:31:13;1.50;;;1.40;;
68655;SDS011;55638;51.122;13.606;2023-04-25T00:32:45;2.25;;;1.40;;
68655;SDS011;55638;51.122;13.606;2023-04-25T00:34:17;1.50;;;1.30;;
68655;SDS011;55638;51.122;13.606;2023-04-25T00:35:49;2.22;;;1.45;;
68655;SDS011;55638;51.122;13.606;2023-04-25T00:37:21;1.85;;;1.48;;
68655;SDS011;55638;51.122;13.606;2023-04-25T00:38:53;1.58;;;1.38;;
68655;SDS011;55638;51.122;13.606;2023-04-25T00:40:26;2.30;;;1.63;;
68655;SDS011;55638;51.122;13.606;2023-04-25T00:41:59;1.40;;;1.30;;
68655;SDS011;55638;51.122;13.606;2023-04-25T00:43:33;1.75;;;1.35;;
68655;SDS011;55638;51.122;13.606;2023-04-25T00:45:05;2.03;;;1.40;;
68655;SDS011;55638;51.122;13.606;2023-04-25T00:46:39;1.50;;;1.40;;
68655;SDS011;55638;51.122;13.606;2023-04-25T00:48:11;2.30;;;1.65;;
68655;SDS011;55638;51.122;13.606;2023-04-25T00:49:45;3.05;;;1.80;;
68655;SDS011;55638;51.122;13.606;2023-04-25T00:51:19;2.55;;;1.70;;
68655;SDS011;55638;51.122;13.606;2023-04-25T00:52:52;3.85;;;2.10;;
68655;SDS011;55638;51.122;13.606;2023-04-25T00:54:24;2.78;;;2.00;;
68655;SDS011;55638;51.122;13.606;2023-04-25T00:55:56;2.42;;;1.95;;
68655;SDS011;55638;51.122;13.606;2023-04-25T00:57:28;2.33;;;2.00;;
68655;SDS011;55638;51.122;13.606;2023-04-25T00:59:00;3.95;;;2.40;;
68655;SDS011;55638;51.122;13.606;2023-04-25T01:00:32;2.13;;;1.85;;
68655;SDS011;55638;51.122;13.606;2023-04-25T01:02:04;3.30;;;1.85;;
68655;SDS011;55638;51.122;13.606;2023-04-25T01:03:37;3.05;;;1.90;;
68655;SDS011;55638;51.122;13.606;2023-04-25T01:05:14;2.47;;;1.88;;
68655;SDS011;55638;51.122;13.606;2023-04-25T01:06:46;2.65;;;1.70;;
68655;SDS011;55638;51.122;13.606;2023-04-25T01:08:18;2.60;;;1.90;;
68655;SDS011;55638;51.122;13.606;2023-04-25T01:09:53;1.90;;;1.67;;
68655;SDS011;55638;51.122;13.606;2023-04-25T01:11:24;2.72;;;1.75;;
68655;SDS011;55638;51.122;13.606;2023-04-25T01:12:56;2.53;;;1.83;;
68655;SDS011;55638;51.122;13.606;2023-04-25T01:14:29;1.70;;;1.42;;
68655;SDS011;55638;51.122;13.606;2023-04-25T01:16:01;2.47;;;1.90;;
68655;SDS011;55638;51.122;13.606;2023-04-25T01:17:34;2.13;;;1.80;;
68655;SDS011;55638;51.122;13.606;2023-04-25T01:19:10;2.30;;;1.63;;
68655;SDS011;55638;51.122;13.606;2023-04-25T01:20:45;2.42;;;1.90;;
68655;SDS011;55638;51.122;13.606;2023-04-25T01:22:17;3.05;;;2.30;;
68655;SDS011;55638;51.122;13.606;2023-04-25T01:23:50;4.03;;;2.33;;
68655;SDS011;55638;51.122;13.606;2023-04-25T01:25:22;2.92;;;2.15;;
68655;SDS011;55638;51.122;13.606;2023-04-25T01:26:55;2.78;;;2.20;;
68655;SDS011;55638;51.122;13.606;2023-04-25T01:28:28;2.78;;;2.15;;
68655;SDS011;55638;51.122;13.606;2023-04-25T01:30:02;2.78;;;2.00;;
68655;SDS011;55638;51.122;13.606;2023-04-25T01:31:36;4.10;;;2.22;;
68655;SDS011;55638;51.122;13.606;2023-04-25T01:33:09;3.85;;;2.20;;
68655;SDS011;55638;51.122;13.606;2023-04-25T01:34:42;3.10;;;2.40;;
68655;SDS011;55638;51.122;13.606;2023-04-25T01:36:14;3.08;;;2.40;;
68655;SDS011;55638;51.122;13.606;2023-04-25T01:37:46;2.92;;;2.10;;
68655;SDS011;55638;51.122;13.606;2023-04-25T01:39:18;5.03;;;2.80;;
68655;SDS011;55638;51.122;13.606;2023-04-25T01:40:51;3.60;;;2.22;;
68655;SDS011;55638;51.122;13.606;2023-04-25T01:42:23;3.55;;;2.47;;
68655;SDS011;55638;51.122;13.606;2023-04-25T01:43:55;7.18;;;2.72;;
68655;SDS011;55638;51.122;13.606;2023-04-25T01:45:28;4.90;;;2.40;;
68655;SDS011;55638;51.122;13.606;2023-04-25T01:47:00;3.75;;;2.42;;
68655;SDS011;55638;51.122;13.606;2023-04-25T01:48:32;3.85;;;2.30;;
68655;SDS011;55638;51.122;13.606;2023-04-25T01:50:04;3.00;;;2.13;;
68655;SDS011;55638;51.122;13.606;2023-04-25T01:51:38;3.92;;;2.95;;
68655;SDS011;55638;51.122;13.606;2023-04-25T01:53:10;7.22;;;2.50;;
68655;SDS011;55638;51.122;13.606;2023-04-25T01:54:46;3.60;;;2.42;;
68655;SDS011;55638;51.122;13.606;2023-04-25T01:56:19;3.40;;;2.28;;
68655;SDS011;55638;51.122;13.606;2023-04-25T01:57:51;3.13;;;2.40;;
68655;SDS011;55638;51.122;13.606;2023-04-25T01:59:29;4.03;;;2.35;;
68655;SDS011;55638;51.122;13.606;2023-04-25T02:01:17;2.90;;;2.20;;
68655;SDS011;55638;51.122;13.606;2023-04-25T02:02:58;3.95;;;2.53;;
68655;SDS011;55638;51.122;13.606;2023-04-25T02:04:34;3.13;;;2.22;;
68655;SDS011;55638;51.122;13.606;2023-04-25T02:06:07;4.07;;;2.50;;
68655;SDS011;55638;51.122;13.606;2023-04-25T02:07:42;4.32;;;2.20;;
68655;SDS011;55638;51.122;13.606;2023-04-25T02:09:14;2.58;;;2.38;;
68655;SDS011;55638;51.122;13.606;2023-04-25T02:10:50;3.70;;;2.08;;
68655;SDS011;55638;51.122;13.606;2023-04-25T02:12:23;2.83;;;2.30;;
68655;SDS011;55638;51.122;13.606;2023-04-25T02:14:16;4.05;;;2.05;;
68655;SDS011;55638;51.122;13.606;2023-04-25T02:15:54;2.97;;;2.15;;
68655;SDS011;55638;51.122;13.606;2023-04-25T02:17:26;4.03;;;2.35;;
68655;SDS011;55638;51.122;13.606;2023-04-25T02:18:58;2.83;;;2.33;;
68655;SDS011;55638;51.122;13.606;2023-04-25T02:20:30;2.55;;;2.35;;
68655;SDS011;55638;51.122;13.606;2023-04-25T02:22:03;2.95;;;2.65;;
68655;SDS011;55638;51.122;13.606;2023-04-25T02:23:35;3.85;;;2.72;;
68655;SDS011;55638;51.122;13.606;2023-04-25T02:25:08;5.38;;;2.92;;
68655;SDS011;55638;51.122;13.606;2023-04-25T02:26:41;5.47;;;2.80;;
68655;SDS011;55638;51.122;13.606;2023-04-25T02:28:13;3.40;;;2.30;;
68655;SDS011;55638;51.122;13.606;2023-04-25T02:29:45;3.20;;;2.58;;
68655;SDS011;55638;51.122;13.606;2023-04-25T02:31:17;4.10;;;2.72;;
68655;SDS011;55638;51.122;13.606;2023-04-25T02:32:49;3.95;;;2.58;;
68655;SDS011;55638;51.122;13.606;2023-04-25T02:34:21;3.65;;;2.60;;
68655;SDS011;55638;51.122;13.606;2023-04-25T02:35:53;3.28;;;2.47;;
68655;SDS011;55638;51.122;13.606;2023-04-25T02:37:26;4.18;;;2.80;;
68655;SDS011;55638;51.122;13.606;2023-04-25T02:38:57;5.20;;;2.80;;
68655;SDS011;55638;51.122;13.606;2023-04-25T02:40:30;4.10;;;2.65;;
68655;SDS011;55638;51.122;13.606;2023-04-25T02:42:02;5.32;;;3.10;;
68655;SDS011;55638;51.122;13.606;2023-04-25T02:43:34;4.18;;;2.95;;
68655;SDS011;55638;51.122;13.606;2023-04-25T02:45:06;4.78;;;2.92;;
68655;SDS011;55638;51.122;13.606;2023-04-25T02:46:38;5.43;;;3.88;;
68655;SDS011;55638;51.122;13.606;2023-04-25T02:48:10;4.53;;;3.60;;
68655;SDS011;55638;51.122;13.606;2023-04-25T02:49:42;4.50;;;2.95;;
68655;SDS011;55638;51.122;13.606;2023-04-25T02:51:14;6.35;;;3.90;;
68655;SDS011;55638;51.122;13.606;2023-04-25T02:52:47;5.85;;;3.75;;
68655;SDS011;55638;51.122;13.606;2023-04-25T02:54:24;6.10;;;3.67;;
68655;SDS011;55638;51.122;13.606;2023-04-25T02:55:56;7.05;;;3.70;;
68655;SDS011;55638;51.122;13.606;2023-04-25T02:57:30;6.40;;;4.00;;
68655;SDS011;55638;51.122;13.606;2023-04-25T02:59:01;6.15;;;4.13;;
68655;SDS011;55638;51.122;13.606;2023-04-25T03:00:35;6.10;;;3.88;;
68655;SDS011;55638;51.122;13.606;2023-04-25T03:02:06;6.35;;;4.10;;
68655;SDS011;55638;51.122;13.606;2023-04-25T03:03:38;6.97;;;4.20;;
68655;SDS011;55638;51.122;13.606;2023-04-25T03:05:11;6.53;;;4.18;;
68655;SDS011;55638;51.122;13.606;2023-04-25T03:06:43;7.68;;;4.30;;
68655;SDS011;55638;51.122;13.606;2023-04-25T03:08:15;5.93;;;3.83;;
68655;SDS011;55638;51.122;13.606;2023-04-25T03:09:47;7.22;;;4.03;;
68655;SDS011;55638;51.122;13.606;2023-04-25T03:11:19;6.50;;;4.43;;
68655;SDS011;55638;51.122;13.606;2023-04-25T03:12:51;5.50;;;3.88;;
68655;SDS011;55638;51.122;13.606;2023-04-25T03:14:23;8.57;;;4.53;;
68655;SDS011;55638;51.122;13.606;2023-04-25T03:15:55;6.75;;;4.45;;
68655;SDS011;55638;51.122;13.606;2023-04-25T03:17:27;5.97;;;4.07;;
68655;SDS011;55638;51.122;13.606;2023-04-25T03:18:59;5.68;;;4.03;;
68655;SDS011;55638;51.122;13.606;2023-04-25T03:20:31;5.82;;;4.03;;
68655;SDS011;55638;51.122;13.606;2023-04-25T03:22:03;5.60;;;4.03;;
68655;SDS011;55638;51.122;13.606;2023-04-25T03:23:35;6.70;;;4.28;;
68655;SDS011;55638;51.122;13.606;2023-04-25T03:25:07;5.60;;;4.13;;
68655;SDS011;55638;51.122;13.606;2023-04-25T03:26:39;5.30;;;4.15;;
68655;SDS011;55638;51.122;13.606;2023-04-25T03:28:13;6.68;;;4.03;;
68655;SDS011;55638;51.122;13.606;2023-04-25T03:29:45;6.43;;;4.22;;
68655;SDS011;55638;51.122;13.606;2023-04-25T03:31:17;6.50;;;4.25;;
68655;SDS011;55638;51.122;13.606;2023-04-25T03:32:49;5.72;;;3.92;;
68655;SDS011;55638;51.122;13.606;2023-04-25T03:34:21;8.00;;;4.72;;
68655;SDS011;55638;51.122;13.606;2023-04-25T03:35:53;5.38;;;3.95;;
68655;SDS011;55638;51.122;13.606;2023-04-25T03:37:25;7.30;;;4.43;;
68655;SDS011;55638;51.122;13.606;2023-04-25T03:38:57;5.90;;;4.32;;
68655;SDS011;55638;51.122;13.606;2023-04-25T03:40:30;5.20;;;3.95;;
68655;SDS011;55638;51.122;13.606;2023-04-25T03:42:17;5.07;;;4.00;;
68655;SDS011;55638;51.122;13.606;2023-04-25T03:43:50;4.88;;;3.83;;
68655;SDS011;55638;51.122;13.606;2023-04-25T03:45:22;5.70;;;3.95;;
68655;SDS011;55638;51.122;13.606;2023-04-25T03:46:54;5.70;;;4.40;;
68655;SDS011;55638;51.122;13.606;2023-04-25T03:48:27;5.38;;;3.90;;
68655;SDS011;55638;51.122;13.606;2023-04-25T03:49:59;4.95;;;4.07;;
68655;SDS011;55638;51.122;13.606;2023-04-25T03:51:33;5.68;;;3.80;;
68655;SDS011;55638;51.122;13.606;2023-04-25T03:53:06;7.35;;;3.95;;
68655;SDS011;55638;51.122;13.606;2023-04-25T03:54:58;5.13;;;3.40;;
68655;SDS011;55638;51.122;13.606;2023-04-25T03:56:30;5.80;;;3.88;;
68655;SDS011;55638;51.122;13.606;2023-04-25T03:58:18;6.15;;;4.20;;
68655;SDS011;55638;51.122;13.606;2023-04-25T03:59:52;5.30;;;3.88;;
68655;SDS011;55638;51.122;13.606;2023-04-25T04:01:23;4.97;;;3.58;;
68655;SDS011;55638;51.122;13.606;2023-04-25T04:02:56;5.50;;;3.95;;
68655;SDS011;55638;51.122;13.606;2023-04-25T04:04:28;5.80;;;3.42;;
68655;SDS011;55638;51.122;13.606;2023-04-25T04:06:03;5.72;;;3.25;;
68655;SDS011;55638;51.122;13.606;2023-04-25T04:07:38;5.75;;;3.80;;
68655;SDS011;55638;51.122;13.606;2023-04-25T04:09:14;5.35;;;3.83;;
68655;SDS011;55638;51.122;13.606;2023-04-25T04:10:48;5.63;;;3.78;;
68655;SDS011;55638;51.122;13.606;2023-04-25T04:12:19;5.00;;;3.75;;
68655;SDS011;55638;51.122;13.606;2023-04-25T04:13:51;3.75;;;3.20;;
68655;SDS011;55638;51.122;13.606;2023-04-25T04:15:23;4.68;;;3.25;;
68655;SDS011;55638;51.122;13.606;2023-04-25T04:16:55;4.20;;;3.67;;
68655;SDS011;55638;51.122;13.606;2023-04-25T04:18:27;5.35;;;3.90;;
68655;SDS011;55638;51.122;13.606;2023-04-25T04:20:00;4.65;;;3.80;;
68655;SDS011;55638;51.122;13.606;2023-04-25T04:21:35;4.28;;;3.72;;
68655;SDS011;55638;51.122;13.606;2023-04-25T04:23:07;5.50;;;4.40;;
68655;SDS011;55638;51.122;13.606;2023-04-25T04:24:39;5.65;;;4.10;;
68655;SDS011;55638;51.122;13.606;2023-04-25T04:26:12;5.68;;;4.25;;
68655;SDS011;55638;51.122;13.606;2023-04-25T04:27:58;5.72;;;4.15;;
68655;SDS011;55638;51.122;13.606;2023-04-25T04:29:49;5.10;;;3.72;;
68655;SDS011;55638;51.122;13.606;2023-04-25T04:31:29;5.83;;;4.37;;
68655;SDS011;55638;51.122;13.606;2023-04-25T04:33:02;5.90;;;3.85;;
68655;SDS011;55638;51.122;13.606;2023-04-25T04:34:35;7.05;;;4.70;;
68655;SDS011;55638;51.122;13.606;2023-04-25T04:36:07;7.25;;;4.32;;
68655;SDS011;55638;51.122;13.606;2023-04-25T04:37:39;5.68;;;4.63;;
68655;SDS011;55638;51.122;13.606;2023-04-25T04:39:15;5.90;;;4.45;;
68655;SDS011;55638;51.122;13.606;2023-04-25T04:40:59;7.70;;;4.40;;
68655;SDS011;55638;51.122;13.606;2023-04-25T04:42:51;6.68;;;4.97;;
68655;SDS011;55638;51.122;13.606;2023-04-25T04:44:45;6.57;;;4.55;;
68655;SDS011;55638;51.122;13.606;2023-04-25T04:46:29;5.65;;;4.63;;
68655;SDS011;55638;51.122;13.606;2023-04-25T04:48:34;8.00;;;4.93;;
68655;SDS011;55638;51.122;13.606;2023-04-25T04:50:26;6.47;;;4.40;;
68655;SDS011;55638;51.122;13.606;2023-04-25T04:52:21;6.75;;;4.93;;
68655;SDS011;55638;51.122;13.606;2023-04-25T04:53:52;6.95;;;5.03;;
68655;SDS011;55638;51.122;13.606;2023-04-25T04:55:43;6.00;;;4.60;;
68655;SDS011;55638;51.122;13.606;2023-04-25T04:57:35;6.72;;;4.40;;
68655;SDS011;55638;51.122;13.606;2023-04-25T04:59:19;6.28;;;4.57;;
68655;SDS011;55638;51.122;13.606;2023-04-25T05:01:14;6.35;;;4.22;;
68655;SDS011;55638;51.122;13.606;2023-04-25T05:03:06;5.40;;;4.10;;
68655;SDS011;55638;51.122;13.606;2023-04-25T05:04:56;5.43;;;4.15;;
68655;SDS011;55638;51.122;13.606;2023-04-25T05:06:55;6.28;;;4.50;;
68655;SDS011;55638;51.122;13.606;2023-04-25T05:08:44;6.70;;;4.90;;
68655;SDS011;55638;51.122;13.606;2023-04-25T05:10:34;5.97;;;4.57;;
68655;SDS011;55638;51.122;13.606;2023-04-25T05:12:19;6.10;;;4.38;;
68655;SDS011;55638;51.122;13.606;2023-04-25T05:14:11;5.78;;;4.55;;
68655;SDS011;55638;51.122;13.606;2023-04-25T05:15:51;5.55;;;3.65;;
68655;SDS011;55638;51.122;13.606;2023-04-25T05:17:43;4.70;;;3.47;;
68655;SDS011;55638;51.122;13.606;2023-04-25T05:19:15;5.82;;;3.90;;
68655;SDS011;55638;51.122;13.606;2023-04-25T05:20:59;4.75;;;3.90;;
68655;SDS011;55638;51.122;13.606;2023-04-25T05:22:49;4.72;;;3.38;;
68655;SDS011;55638;51.122;13.606;2023-04-25T05:24:25;4.93;;;3.42;;
68655;SDS011;55638;51.122;13.606;2023-04-25T05:26:12;4.57;;;3.53;;
68655;SDS011;55638;51.122;13.606;2023-04-25T05:28:16;4.45;;;3.58;;
68655;SDS011;55638;51.122;13.606;2023-04-25T05:30:02;4.38;;;3.20;;
68655;SDS011;55638;51.122;13.606;2023-04-25T05:31:53;3.55;;;3.13;;
68655;SDS011;55638;51.122;13.606;2023-04-25T05:33:26;5.13;;;3.47;;
68655;SDS011;55638;51.122;13.606;2023-04-25T05:34:57;3.75;;;2.67;;
68655;SDS011;55638;51.122;13.606;2023-04-25T05:36:32;4.28;;;3.78;;
68655;SDS011;55638;51.122;13.606;2023-04-25T05:38:04;3.40;;;3.03;;
68655;SDS011;55638;51.122;13.606;2023-04-25T05:39:56;5.05;;;3.55;;
68655;SDS011;55638;51.122;13.606;2023-04-25T05:41:45;3.13;;;2.67;;
68655;SDS011;55638;51.122;13.606;2023-04-25T05:43:33;3.90;;;3.25;;
68655;SDS011;55638;51.122;13.606;2023-04-25T05:45:19;4.75;;;3.30;;
68655;SDS011;55638;51.122;13.606;2023-04-25T05:46:59;3.85;;;2.97;;
68655;SDS011;55638;51.122;13.606;2023-04-25T05:48:46;4.18;;;2.80;;
68655;SDS011;55638;51.122;13.606;2023-04-25T05:50:41;4.65;;;2.92;;
68655;SDS011;55638;51.122;13.606;2023-04-25T05:52:43;3.72;;;2.70;;
68655;SDS011;55638;51.122;13.606;2023-04-25T05:54:28;5.40;;;2.88;;
68655;SDS011;55638;51.122;13.606;2023-04-25T05:56:00;5.18;;;2.78;;
68655;SDS011;55638;51.122;13.606;2023-04-25T05:57:33;3.88;;;2.90;;
68655;SDS011;55638;51.122;13.606;2023-04-25T05:59:05;4.13;;;2.88;;
68655;SDS011;55638;51.122;13.606;2023-04-25T06:00:37;4.40;;;2.67;;
68655;SDS011;55638;51.122;13.606;2023-04-25T06:02:10;4.78;;;2.92;;
68655;SDS011;55638;51.122;13.606;2023-04-25T06:03:42;3.65;;;2.45;;
68655;SDS011;55638;51.122;13.606;2023-04-25T06:05:15;3.97;;;2.92;;
68655;SDS011;55638;51.122;13.606;2023-04-25T06:06:48;4.38;;;2.78;;
68655;SDS011;55638;51.122;13.606;2023-04-25T06:08:20;5.43;;;3.17;;
68655;SDS011;55638;51.122;13.606;2023-04-25T06:09:52;2.78;;;2.13;;
68655;SDS011;55638;51.122;13.606;2023-04-25T06:11:24;3.67;;;2.47;;
68655;SDS011;55638;51.122;13.606;2023-04-25T06:12:56;3.90;;;2.50;;
68655;SDS011;55638;51.122;13.606;2023-04-25T06:14:29;3.28;;;2.47;;
68655;SDS011;55638;51.122;13.606;2023-04-25T06:16:01;3.53;;;2.40;;
68655;SDS011;55638;51.122;13.606;2023-04-25T06:17:33;5.05;;;2.60;;
68655;SDS011;55638;51.122;13.606;2023-04-25T06:19:05;3.83;;;2.83;;
68655;SDS011;55638;51.122;13.606;2023-04-25T06:20:37;4.13;;;2.40;;
68655;SDS011;55638;51.122;13.606;2023-04-25T06:22:09;6.15;;;3.17;;
68655;SDS011;55638;51.122;13.606;2023-04-25T06:23:44;3.70;;;2.90;;
68655;SDS011;55638;51.122;13.606;2023-04-25T06:25:22;5.43;;;3.05;;
68655;SDS011;55638;51.122;13.606;2023-04-25T06:26:55;5.80;;;2.88;;
68655;SDS011;55638;51.122;13.606;2023-04-25T06:28:27;6.28;;;3.13;;
68655;SDS011;55638;51.122;13.606;2023-04-25T06:29:58;5.55;;;3.15;;
68655;SDS011;55638;51.122;13.606;2023-04-25T06:31:30;5.03;;;2.75;;
68655;SDS011;55638;51.122;13.606;2023-04-25T06:33:04;4.93;;;3.03;;
68655;SDS011;55638;51.122;13.606;2023-04-25T06:34:37;5.03;;;3.40;;
68655;SDS011;55638;51.122;13.606;2023-04-25T06:36:10;4.50;;;3.05;;
68655;SDS011;55638;51.122;13.606;2023-04-25T06:37:42;5.88;;;3.58;;
68655;SDS011;55638;51.122;13.606;2023-04-25T06:39:14;4.35;;;2.53;;
68655;SDS011;55638;51.122;13.606;2023-04-25T06:40:46;4.13;;;2.95;;
68655;SDS011;55638;51.122;13.606;2023-04-25T06:42:18;5.28;;;2.75;;
68655;SDS011;55638;51.122;13.606;2023-04-25T06:43:56;5.60;;;2.50;;
68655;SDS011;55638;51.122;13.606;2023-04-25T06:45:33;5.40;;;2.50;;
68655;SDS011;55638;51.122;13.606;2023-04-25T06:47:05;4.07;;;2.38;;
68655;SDS011;55638;51.122;13.606;2023-04-25T06:48:37;3.88;;;2.25;;
68655;SDS011;55638;51.122;13.606;2023-04-25T06:50:09;3.35;;;2.20;;
68655;SDS011;55638;51.122;13.606;2023-04-25T06:51:43;3.80;;;2.20;;
68655;SDS011;55638;51.122;13.606;2023-04-25T06:53:15;4.43;;;2.50;;
68655;SDS011;55638;51.122;13.606;2023-04-25T06:54:50;4.15;;;2.53;;
68655;SDS011;55638;51.122;13.606;2023-04-25T06:56:31;4.05;;;2.42;;
68655;SDS011;55638;51.122;13.606;2023-04-25T06:58:09;4.13;;;2.40;;
68655;SDS011;55638;51.122;13.606;2023-04-25T07:00:04;5.38;;;2.58;;
68655;SDS011;55638;51.122;13.606;2023-04-25T07:01:41;4.28;;;2.25;;
68655;SDS011;55638;51.122;13.606;2023-04-25T07:03:19;3.38;;;2.65;;
68655;SDS011;55638;51.122;13.606;2023-04-25T07:04:51;2.30;;;2.10;;
68655;SDS011;55638;51.122;13.606;2023-04-25T07:06:23;4.80;;;2.60;;
68655;SDS011;55638;51.122;13.606;2023-04-25T07:07:57;2.63;;;2.25;;
68655;SDS011;55638;51.122;13.606;2023-04-25T07:09:30;4.25;;;2.50;;
68655;SDS011;55638;51.122;13.606;2023-04-25T07:11:05;3.08;;;2.22;;
68655;SDS011;55638;51.122;13.606;2023-04-25T07:12:37;3.78;;;2.10;;
68655;SDS011;55638;51.122;13.606;2023-04-25T07:14:09;3.33;;;2.33;;
68655;SDS011;55638;51.122;13.606;2023-04-25T07:15:41;2.92;;;2.28;;
68655;SDS011;55638;51.122;13.606;2023-04-25T07:17:13;4.72;;;2.28;;
68655;SDS011;55638;51.122;13.606;2023-04-25T07:18:45;3.55;;;2.40;;
68655;SDS011;55638;51.122;13.606;2023-04-25T07:20:17;4.10;;;1.92;;
68655;SDS011;55638;51.122;13.606;2023-04-25T07:21:49;5.13;;;2.17;;
68655;SDS011;55638;51.122;13.606;2023-04-25T07:23:25;4.97;;;2.47;;
68655;SDS011;55638;51.122;13.606;2023-04-25T07:24:57;2.70;;;2.20;;
68655;SDS011;55638;51.122;13.606;2023-04-25T07:26:31;3.55;;;2.35;;
68655;SDS011;55638;51.122;13.606;2023-04-25T07:28:23;4.35;;;2.10;;
68655;SDS011;55638;51.122;13.606;2023-04-25T07:29:55;4.07;;;2.42;;
68655;SDS011;55638;51.122;13.606;2023-04-25T07:31:27;3.55;;;2.47;;
68655;SDS011;55638;51.122;13.606;2023-04-25T07:32:59;3.15;;;2.15;;
68655;SDS011;55638;51.122;13.606;2023-04-25T07:34:31;6.05;;;2.90;;
68655;SDS011;55638;51.122;13.606;2023-04-25T07:36:03;6.22;;;2.83;;
68655;SDS011;55638;51.122;13.606;2023-04-25T07:37:36;3.75;;;2.00;;
68655;SDS011;55638;51.122;13.606;2023-04-25T07:39:14;3.15;;;2.10;;
68655;SDS011;55638;51.122;13.606;2023-04-25T07:40:47;2.78;;;1.92;;
68655;SDS011;55638;51.122;13.606;2023-04-25T07:42:20;2.95;;;2.33;;
68655;SDS011;55638;51.122;13.606;2023-04-25T07:43:54;2.53;;;2.22;;
68655;SDS011;55638;51.122;13.606;2023-04-25T07:45:26;3.90;;;2.38;;
68655;SDS011;55638;51.122;13.606;2023-04-25T07:46:58;3.83;;;2.30;;
68655;SDS011;55638;51.122;13.606;2023-04-25T07:48:32;3.05;;;2.00;;
68655;SDS011;55638;51.122;13.606;2023-04-25T07:50:04;2.40;;;2.03;;
68655;SDS011;55638;51.122;13.606;2023-04-25T07:51:37;4.22;;;2.42;;
68655;SDS011;55638;51.122;13.606;2023-04-25T07:53:13;3.25;;;2.10;;
68655;SDS011;55638;51.122;13.606;2023-04-25T07:54:52;3.92;;;2.25;;
68655;SDS011;55638;51.122;13.606;2023-04-25T07:56:30;3.20;;;2.10;;
68655;SDS011;55638;51.122;13.606;2023-04-25T07:58:22;3.63;;;1.75;;
68655;SDS011;55638;51.122;13.606;2023-04-25T07:59:58;5.35;;;1.90;;
68655;SDS011;55638;51.122;13.606;2023-04-25T08:01:33;2.42;;;1.98;;
68655;SDS011;55638;51.122;13.606;2023-04-25T08:03:09;2.40;;;1.95;;
68655;SDS011;55638;51.122;13.606;2023-04-25T08:04:41;2.53;;;2.00;;
68655;SDS011;55638;51.122;13.606;2023-04-25T08:06:16;3.35;;;1.80;;
68655;SDS011;55638;51.122;13.606;2023-04-25T08:08:09;2.80;;;1.80;;
68655;SDS011;55638;51.122;13.606;2023-04-25T08:09:41;3.15;;;2.00;;
68655;SDS011;55638;51.122;13.606;2023-04-25T08:11:20;3.40;;;2.30;;
68655;SDS011;55638;51.122;13.606;2023-04-25T08:12:53;2.33;;;1.85;;
68655;SDS011;55638;51.122;13.606;2023-04-25T08:14:26;2.42;;;2.10;;
68655;SDS011;55638;51.122;13.606;2023-04-25T08:15:58;3.00;;;1.77;;
68655;SDS011;55638;51.122;13.606;2023-04-25T08:17:30;2.60;;;2.00;;
68655;SDS011;55638;51.122;13.606;2023-04-25T08:19:02;3.22;;;2.25;;
68655;SDS011;55638;51.122;13.606;2023-04-25T08:20:35;2.58;;;1.73;;
68655;SDS011;55638;51.122;13.606;2023-04-25T08:22:09;2.63;;;1.80;;
68655;SDS011;55638;51.122;13.606;2023-04-25T08:23:52;3.03;;;2.15;;
68655;SDS011;55638;51.122;13.606;2023-04-25T08:25:31;3.55;;;2.22;;
68655;SDS011;55638;51.122;13.606;2023-04-25T08:27:03;2.53;;;2.05;;
68655;SDS011;55638;51.122;13.606;2023-04-25T08:28:35;3.40;;;2.30;;
68655;SDS011;55638;51.122;13.606;2023-04-25T08:30:07;2.90;;;2.17;;
68655;SDS011;55638;51.122;13.606;2023-04-25T08:31:44;1.88;;;1.75;;
68655;SDS011;55638;51.122;13.606;2023-04-25T08:33:17;3.25;;;2.15;;
68655;SDS011;55638;51.122;13.606;2023-04-25T08:35:04;2.58;;;2.10;;
68655;SDS011;55638;51.122;13.606;2023-04-25T08:36:37;3.08;;;2.22;;
68655;SDS011;55638;51.122;13.606;2023-04-25T08:38:29;1.98;;;1.70;;
68655;SDS011;55638;51.122;13.606;2023-04-25T08:40:01;2.65;;;1.95;;
68655;SDS011;55638;51.122;13.606;2023-04-25T08:41:50;2.13;;;1.60;;
68655;SDS011;55638;51.122;13.606;2023-04-25T08:43:22;3.35;;;2.00;;
68655;SDS011;55638;51.122;13.606;2023-04-25T08:44:55;3.97;;;1.95;;
68655;SDS011;55638;51.122;13.606;2023-04-25T08:46:32;2.85;;;1.90;;
68655;SDS011;55638;51.122;13.606;2023-04-25T08:48:14;2.85;;;2.33;;
68655;SDS011;55638;51.122;13.606;2023-04-25T08:49:47;3.13;;;2.75;;
68655;SDS011;55638;51.122;13.606;2023-04-25T08:51:22;3.58;;;2.45;;
68655;SDS011;55638;51.122;13.606;2023-04-25T08:52:56;2.78;;;2.00;;
68655;SDS011;55638;51.122;13.606;2023-04-25T08:54:33;3.58;;;2.25;;
68655;SDS011;55638;51.122;13.606;2023-04-25T08:56:10;2.83;;;2.05;;
68655;SDS011;55638;51.122;13.606;2023-04-25T08:57:44;1.80;;;1.63;;
68655;SDS011;55638;51.122;13.606;2023-04-25T08:59:16;1.48;;;1.38;;
68655;SDS011;55638;51.122;13.606;2023-04-25T09:00:50;2.90;;;1.80;;
68655;SDS011;55638;51.122;13.606;2023-04-25T09:02:25;3.10;;;1.85;;
68655;SDS011;55638;51.122;13.606;2023-04-25T09:03:58;5.43;;;2.03;;
68655;SDS011;55638;51.122;13.606;2023-04-25T09:05:30;3.38;;;2.05;;
68655;SDS011;55638;51.122;13.606;2023-04-25T09:07:04;2.60;;;1.90;;
68655;SDS011;55638;51.122;13.606;2023-04-25T09:08:37;3.17;;;2.08;;
68655;SDS011;55638;51.122;13.606;2023-04-25T09:10:09;3.38;;;2.30;;
68655;SDS011;55638;51.122;13.606;2023-04-25T09:11:42;3.95;;;2.60;;
68655;SDS011;55638;51.122;13.606;2023-04-25T09:13:20;4.53;;;2.85;;
68655;SDS011;55638;51.122;13.606;2023-04-25T09:15:17;3.17;;;2.30;;
68655;SDS011;55638;51.122;13.606;2023-04-25T09:17:10;4.07;;;1.90;;
68655;SDS011;55638;51.122;13.606;2023-04-25T09:18:48;3.35;;;1.80;;
68655;SDS011;55638;51.122;13.606;2023-04-25T09:20:21;3.83;;;2.20;;
68655;SDS011;55638;51.122;13.606;2023-04-25T09:21:54;4.15;;;2.30;;
68655;SDS011;55638;51.122;13.606;2023-04-25T09:23:26;2.90;;;1.95;;
68655;SDS011;55638;51.122;13.606;2023-04-25T09:24:58;4.10;;;2.17;;
68655;SDS011;55638;51.122;13.606;2023-04-25T09:26:34;2.55;;;1.67;;